Terminal Aerodrome Forecast
Issued by NWS Melbourne, FL

Current Version | Previous Version | Text Only | Print | Product List | Glossary On
Versions: 1 2 3 4 5 6 7 8 9 10 11 12 13 14 15 16
000
FTUS42 KMLB 281128
TAFMLB
TAF
KMLB 281128Z 2812/2912 VRB03KT P6SM FEW030 BKN250
     FM281700 09009KT P6SM VCTS SCT035CB SCT250
     FM282100 10010KT P6SM VCSH SCT040 SCT120 BKN250
     FM290000 11005KT P6SM FEW070 BKN250=

USA.gov is the U.S. government's official web portal to all federal, state and local government web resources and services.